Time;durP1;ratioP1;P1;durP2;ratioP2;P2;SDS_P1;SDS_P2;PMS_P1;PMS_P2;Temp;Humidity;BMP_temperature;BMP_pressure;BME280_temperature;BME280_humidity;BME280_pressure;Samples;Min_cycle;Max_cycle;Signal;HPM_P1;HPM_P2
2023/03/14 00:01:21;;;;;;;;;;;9.70;99.90;;;;;;4877833;29;20261;-66
2023/03/14 00:03:46;;;;;;;;;;;9.70;99.90;;;;;;4861635;29;19971;-65
2023/03/14 00:06:12;;;;;;;;;;;9.70;99.90;;;;;;4878219;29;19934;-64
2023/03/14 00:08:38;;;;;;;;;;;9.80;99.90;;;;;;4861403;29;20009;-64
2023/03/14 00:11:30;;;;;;;;;;;9.80;99.90;;;;;;4878378;29;19928;-65
2023/03/14 00:13:56;;;;;;;;;;;9.80;99.90;;;;;;4859790;29;19934;-65
2023/03/14 00:16:22;;;;;;;;;;;9.80;99.90;;;;;;4860546;29;20018;-65
2023/03/14 00:18:47;;;;;;;;;;;9.80;99.90;;;;;;4878264;29;19986;-65
2023/03/14 00:21:13;;;;;;;;;;;9.80;99.90;;;;;;4877394;29;20296;-65
2023/03/14 00:23:40;;;;;;;;;;;9.80;99.90;;;;;;4861449;29;19928;-65
2023/03/14 00:26:07;;;;;;;;;;;9.90;99.90;;;;;;4861735;29;19935;-65
2023/03/14 00:28:33;;;;;;;;;;;9.90;99.90;;;;;;4881361;29;19936;-65
2023/03/14 00:30:59;;;;;;;;;;;9.90;99.90;;;;;;4881855;29;19935;-65
2023/03/14 00:33:24;;;;;;;;;;;10.00;99.90;;;;;;4881548;29;19928;-65
2023/03/14 00:35:54;;;;;;;;;;;10.00;99.90;;;;;;4865059;29;20299;-65
2023/03/14 00:38:21;;;;;;;;;;;10.00;99.90;;;;;;4881662;29;19960;-65
2023/03/14 00:40:46;;;;;;;;;;;10.00;99.90;;;;;;4881441;29;19928;-65
2023/03/14 00:43:12;;;;;;;;;;;10.00;99.90;;;;;;4881446;29;19928;-65
2023/03/14 00:45:37;;;;;;;;;;;10.00;99.90;;;;;;4864775;29;19928;-65
2023/03/14 00:48:03;;;;;;;;;;;10.00;99.90;;;;;;4881562;29;19948;-65
2023/03/14 00:50:28;;;;;;;;;;;10.00;99.90;;;;;;4881096;29;19986;-65
2023/03/14 00:52:54;;;;;;;;;;;9.90;99.90;;;;;;4881870;29;19932;-65
2023/03/14 00:55:20;;;;;;;;;;;9.90;99.90;;;;;;4881036;29;19928;-65
2023/03/14 00:57:45;;;;;;;;;;;9.90;99.90;;;;;;4881190;29;19923;-65
2023/03/14 01:00:12;;;;;;;;;;;10.00;99.90;;;;;;4881403;29;20026;-65
2023/03/14 01:02:37;;;;;;;;;;;10.00;99.90;;;;;;4881029;29;19927;-65
2023/03/14 01:05:03;;;;;;;;;;;9.90;99.90;;;;;;4880715;29;19927;-66
2023/03/14 01:07:29;;;;;;;;;;;9.90;99.90;;;;;;4880637;29;19932;-66
2023/03/14 01:09:54;;;;;;;;;;;9.90;99.90;;;;;;4881109;29;19935;-65
2023/03/14 01:12:20;;;;;;;;;;;9.90;99.90;;;;;;4864796;29;20363;-65
2023/03/14 01:14:46;;;;;;;;;;;9.90;99.90;;;;;;4880707;29;19974;-65
2023/03/14 01:17:11;;;;;;;;;;;9.80;99.90;;;;;;4881153;29;19927;-65
2023/03/14 01:19:37;;;;;;;;;;;9.80;99.90;;;;;;4863716;29;19935;-63
2023/03/14 01:22:03;;;;;;;;;;;9.90;99.90;;;;;;4864343;29;19927;-64
2023/03/14 01:24:28;;;;;;;;;;;9.90;99.90;;;;;;4864452;29;19927;-65
2023/03/14 01:26:54;;;;;;;;;;;9.90;99.90;;;;;;4880645;29;19950;-63
2023/03/14 01:29:19;;;;;;;;;;;10.00;99.90;;;;;;4880815;29;20372;-64
2023/03/14 01:31:45;;;;;;;;;;;10.00;99.90;;;;;;4880437;29;20388;-64
2023/03/14 01:34:11;;;;;;;;;;;10.00;99.90;;;;;;4880636;29;19928;-64
2023/03/14 01:36:36;;;;;;;;;;;10.10;99.90;;;;;;4864053;29;19971;-64
2023/03/14 01:39:02;;;;;;;;;;;10.10;99.90;;;;;;4880165;29;19934;-64
2023/03/14 01:41:28;;;;;;;;;;;10.10;99.90;;;;;;4880430;29;19931;-64
2023/03/14 01:43:53;;;;;;;;;;;10.10;99.90;;;;;;4880282;29;19942;-64
2023/03/14 01:46:22;;;;;;;;;;;10.20;99.90;;;;;;4863923;29;19938;-64
2023/03/14 01:48:52;;;;;;;;;;;10.20;99.90;;;;;;4880001;29;19928;-64
2023/03/14 01:51:21;;;;;;;;;;;10.20;99.90;;;;;;4880380;29;19986;-64
2023/03/14 01:53:47;;;;;;;;;;;10.20;99.90;;;;;;4863114;29;20019;-64
2023/03/14 01:56:14;;;;;;;;;;;10.20;99.90;;;;;;4860111;29;19935;-64
2023/03/14 01:58:41;;;;;;;;;;;10.20;99.90;;;;;;4860269;29;19932;-64
2023/03/14 02:01:08;;;;;;;;;;;10.20;99.90;;;;;;4875871;29;19928;-64
2023/03/14 02:03:36;;;;;;;;;;;10.20;99.90;;;;;;4861693;29;20027;-65
2023/03/14 02:06:04;;;;;;;;;;;10.20;99.90;;;;;;4876028;29;20018;-64
2023/03/14 02:08:30;;;;;;;;;;;10.20;99.90;;;;;;4860346;29;19932;-64
2023/03/14 02:10:56;;;;;;;;;;;10.20;99.90;;;;;;4859912;29;20177;-64
2023/03/14 02:13:22;;;;;;;;;;;10.10;99.90;;;;;;4861488;29;19928;-64
2023/03/14 02:15:48;;;;;;;;;;;10.10;99.90;;;;;;4860175;29;20337;-65
2023/03/14 02:18:14;;;;;;;;;;;10.10;99.90;;;;;;4861601;29;19928;-65
2023/03/14 02:20:58;;;;;;;;;;;10.10;99.90;;;;;;4861036;29;19932;-66
2023/03/14 02:23:39;;;;;;;;;;;10.10;99.90;;;;;;4860436;29;20390;-65
2023/03/14 02:26:10;;;;;;;;;;;10.10;99.90;;;;;;4861430;29;20309;-65
2023/03/14 02:28:36;;;;;;;;;;;10.00;99.90;;;;;;4875944;29;19928;-65
2023/03/14 02:31:01;;;;;;;;;;;10.00;99.90;;;;;;4859684;29;19951;-65
2023/03/14 02:33:27;;;;;;;;;;;10.00;99.90;;;;;;4860924;29;20064;-65
2023/03/14 02:35:57;;;;;;;;;;;10.00;99.90;;;;;;4859755;29;19928;-65
2023/03/14 02:38:29;;;;;;;;;;;9.90;99.90;;;;;;4844978;29;19928;-64
2023/03/14 02:40:54;;;;;;;;;;;9.80;99.90;;;;;;4860418;29;20324;-66
2023/03/14 02:43:20;;;;;;;;;;;9.90;99.90;;;;;;4860833;29;19936;-65
2023/03/14 02:45:47;;;;;;;;;;;9.70;99.90;;;;;;4859324;29;19939;-65
2023/03/14 02:48:32;;;;;;;;;;;9.80;99.90;;;;;;4861162;29;20288;-65
2023/03/14 02:50:59;;;;;;;;;;;9.80;99.90;;;;;;4873475;29;19936;-65
2023/03/14 02:53:27;;;;;;;;;;;9.80;99.90;;;;;;4860874;29;19971;-65
2023/03/14 02:55:52;;;;;;;;;;;9.80;99.90;;;;;;4869113;29;20018;-65
2023/03/14 02:58:18;;;;;;;;;;;9.70;99.90;;;;;;4879366;29;20031;-65
2023/03/14 03:00:44;;;;;;;;;;;9.70;99.90;;;;;;4878432;29;19927;-67
2023/03/14 03:03:09;;;;;;;;;;;9.70;99.90;;;;;;4862586;29;20026;-66
2023/03/14 03:05:35;;;;;;;;;;;9.70;99.90;;;;;;4879214;29;19928;-65
2023/03/14 03:08:01;;;;;;;;;;;9.60;99.90;;;;;;4862229;29;19932;-65
2023/03/14 03:10:27;;;;;;;;;;;9.60;99.90;;;;;;4862554;29;20460;-65
2023/03/14 03:12:53;;;;;;;;;;;9.60;99.90;;;;;;4878338;29;19928;-65
2023/03/14 03:15:18;;;;;;;;;;;9.60;99.90;;;;;;4878971;29;19928;-65
2023/03/14 03:17:44;;;;;;;;;;;9.60;99.90;;;;;;4878995;29;19976;-67
2023/03/14 03:20:10;;;;;;;;;;;9.50;99.90;;;;;;4862422;29;20288;-65
2023/03/14 03:22:36;;;;;;;;;;;9.50;99.90;;;;;;4862223;29;19934;-67
2023/03/14 03:25:02;;;;;;;;;;;9.50;99.90;;;;;;4878397;29;19928;-66
2023/03/14 03:27:29;;;;;;;;;;;9.50;99.90;;;;;;4847078;29;20341;-65
2023/03/14 03:29:55;;;;;;;;;;;9.40;99.90;;;;;;4861910;29;19934;-64
2023/03/14 03:32:20;;;;;;;;;;;9.40;99.90;;;;;;4878816;29;19928;-64
2023/03/14 03:34:46;;;;;;;;;;;9.30;99.90;;;;;;4878839;29;19928;-66
2023/03/14 03:37:11;;;;;;;;;;;9.30;99.90;;;;;;4878602;29;19979;-64
2023/03/14 03:39:37;;;;;;;;;;;9.30;99.90;;;;;;4878711;29;19928;-64
2023/03/14 03:42:02;;;;;;;;;;;9.20;99.90;;;;;;4878290;29;20328;-64
2023/03/14 03:44:28;;;;;;;;;;;9.10;99.90;;;;;;4878563;29;19931;-64
2023/03/14 03:46:53;;;;;;;;;;;9.10;99.90;;;;;;4846203;29;20281;-64
2023/03/14 03:49:19;;;;;;;;;;;9.10;99.90;;;;;;4846903;29;19985;-64
2023/03/14 03:51:45;;;;;;;;;;;9.10;99.90;;;;;;4878573;29;19972;-64
2023/03/14 03:54:10;;;;;;;;;;;9.10;99.90;;;;;;4878022;29;19928;-64
2023/03/14 03:56:36;;;;;;;;;;;9.10;99.90;;;;;;4878515;29;19952;-65
2023/03/14 03:59:01;;;;;;;;;;;9.10;99.90;;;;;;4861626;29;19932;-65
2023/03/14 04:01:27;;;;;;;;;;;9.10;99.90;;;;;;4878440;29;20399;-64
2023/03/14 04:03:53;;;;;;;;;;;9.10;99.90;;;;;;4877873;29;19976;-64
2023/03/14 04:06:18;;;;;;;;;;;9.10;99.90;;;;;;4878298;29;19927;-65
2023/03/14 04:08:44;;;;;;;;;;;9.10;99.90;;;;;;4878450;29;19995;-64
2023/03/14 04:11:10;;;;;;;;;;;9.10;99.90;;;;;;4860873;29;20019;-64
2023/03/14 04:13:35;;;;;;;;;;;9.10;99.90;;;;;;4878491;29;19927;-65
2023/03/14 04:16:01;;;;;;;;;;;9.10;99.90;;;;;;4846214;29;19928;-64
2023/03/14 04:18:27;;;;;;;;;;;9.10;99.90;;;;;;4846440;29;20277;-64
2023/03/14 04:20:55;;;;;;;;;;;9.10;99.90;;;;;;4878036;29;19927;-66
2023/03/14 04:23:23;;;;;;;;;;;9.10;99.90;;;;;;4878076;29;20014;-64
2023/03/14 04:25:50;;;;;;;;;;;9.10;99.90;;;;;;4877907;29;19938;-64
2023/03/14 04:28:16;;;;;;;;;;;9.10;99.90;;;;;;4877546;29;19928;-65
2023/03/14 04:30:41;;;;;;;;;;;9.10;99.90;;;;;;4877878;29;19992;-65
2023/03/14 04:33:07;;;;;;;;;;;9.10;99.90;;;;;;4877496;29;19984;-64
2023/03/14 04:35:33;;;;;;;;;;;9.10;99.90;;;;;;4877970;29;20345;-64
2023/03/14 04:37:59;;;;;;;;;;;9.10;99.90;;;;;;4845562;29;19927;-64
2023/03/14 04:40:25;;;;;;;;;;;9.10;99.90;;;;;;4861244;29;20439;-64
2023/03/14 04:42:50;;;;;;;;;;;9.10;99.90;;;;;;4877743;29;19928;-64
2023/03/14 04:45:16;;;;;;;;;;;9.10;99.90;;;;;;4877438;29;19924;-65
2023/03/14 04:47:42;;;;;;;;;;;9.00;99.90;;;;;;4877771;29;20383;-64
2023/03/14 04:50:08;;;;;;;;;;;9.00;99.90;;;;;;4877470;29;20030;-64
2023/03/14 04:52:33;;;;;;;;;;;9.00;99.90;;;;;;4878081;29;19927;-64
2023/03/14 04:54:59;;;;;;;;;;;9.00;99.90;;;;;;4877365;29;19994;-64
2023/03/14 04:57:24;;;;;;;;;;;9.00;99.90;;;;;;4877961;29;19935;-65
2023/03/14 04:59:50;;;;;;;;;;;9.00;99.90;;;;;;4861224;29;20320;-63
2023/03/14 05:02:16;;;;;;;;;;;9.00;99.90;;;;;;4860917;29;19953;-63
2023/03/14 05:04:41;;;;;;;;;;;8.90;99.90;;;;;;4877781;29;19928;-63
2023/03/14 05:07:07;;;;;;;;;;;9.00;99.90;;;;;;4877279;29;19928;-63
2023/03/14 05:09:32;;;;;;;;;;;8.90;99.90;;;;;;4877449;29;19986;-63
2023/03/14 05:11:58;;;;;;;;;;;8.90;99.90;;;;;;4877686;29;19928;-65
2023/03/14 05:14:23;;;;;;;;;;;8.90;99.90;;;;;;4864038;29;19981;-63
2023/03/14 05:16:49;;;;;;;;;;;8.90;99.90;;;;;;4881072;29;20318;-63
2023/03/14 05:19:14;;;;;;;;;;;8.90;99.90;;;;;;4880558;29;19927;-64
2023/03/14 05:21:40;;;;;;;;;;;8.90;99.90;;;;;;4881048;29;19928;-64
2023/03/14 05:24:06;;;;;;;;;;;8.90;99.90;;;;;;4881005;29;19931;-64
2023/03/14 05:26:31;;;;;;;;;;;8.90;99.90;;;;;;4881021;29;20014;-64
2023/03/14 05:28:57;;;;;;;;;;;8.80;99.90;;;;;;4880898;29;20372;-64
2023/03/14 05:31:22;;;;;;;;;;;8.80;99.90;;;;;;4880448;29;20264;-64
2023/03/14 05:33:48;;;;;;;;;;;8.70;99.90;;;;;;4880887;29;19955;-63
2023/03/14 05:36:13;;;;;;;;;;;8.80;99.90;;;;;;4880387;29;19927;-64
2023/03/14 05:38:39;;;;;;;;;;;8.70;99.90;;;;;;4880580;29;19931;-64
2023/03/14 05:41:05;;;;;;;;;;;8.70;99.90;;;;;;4880218;29;19934;-64
2023/03/14 05:43:30;;;;;;;;;;;8.80;99.90;;;;;;4880668;29;19975;-64
2023/03/14 05:45:56;;;;;;;;;;;8.70;99.90;;;;;;4880686;29;20037;-64
2023/03/14 05:48:21;;;;;;;;;;;8.80;99.90;;;;;;4878937;29;20027;-64
2023/03/14 05:50:47;;;;;;;;;;;8.70;99.90;;;;;;4863675;29;19927;-64
2023/03/14 05:53:13;;;;;;;;;;;8.70;99.90;;;;;;4879766;29;19935;-64
2023/03/14 05:55:39;;;;;;;;;;;8.80;99.90;;;;;;4880280;29;19928;-65
2023/03/14 05:58:04;;;;;;;;;;;8.70;99.90;;;;;;4879952;29;19984;-65
2023/03/14 06:00:30;;;;;;;;;;;8.80;99.90;;;;;;4863139;29;19928;-64
2023/03/14 06:02:56;;;;;;;;;;;8.80;99.90;;;;;;4879898;29;20006;-64
2023/03/14 06:05:21;;;;;;;;;;;8.70;99.90;;;;;;4879055;29;19928;-65
2023/03/14 06:07:47;;;;;;;;;;;8.70;99.90;;;;;;4863339;29;20375;-62
2023/03/14 06:10:12;;;;;;;;;;;8.70;99.90;;;;;;4879218;29;19976;-64
2023/03/14 06:12:38;;;;;;;;;;;8.70;99.90;;;;;;4879406;29;19927;-66
2023/03/14 06:15:04;;;;;;;;;;;8.70;99.90;;;;;;4863302;29;19990;-64
2023/03/14 06:17:29;;;;;;;;;;;8.60;99.90;;;;;;4848017;29;20019;-63
2023/03/14 06:19:55;;;;;;;;;;;8.60;99.90;;;;;;4878898;29;19950;-65
2023/03/14 06:22:20;;;;;;;;;;;8.70;99.90;;;;;;4879672;29;19935;-63
2023/03/14 06:24:46;;;;;;;;;;;8.70;99.90;;;;;;4847197;29;20026;-63
2023/03/14 06:27:12;;;;;;;;;;;8.70;99.90;;;;;;4847391;29;20019;-63
2023/03/14 06:29:37;;;;;;;;;;;8.70;99.90;;;;;;4879782;29;19980;-63
2023/03/14 06:32:04;;;;;;;;;;;8.40;99.90;;;;;;4862995;29;20376;-62
2023/03/14 06:34:30;;;;;;;;;;;8.20;99.90;;;;;;4879377;29;19931;-63
2023/03/14 06:36:55;;;;;;;;;;;7.80;99.90;;;;;;4847515;29;20288;-65
2023/03/14 06:39:21;;;;;;;;;;;7.70;99.90;;;;;;4879301;29;19927;-63
2023/03/14 06:41:46;;;;;;;;;;;7.50;99.90;;;;;;4879340;29;19928;-64
2023/03/14 06:44:12;;;;;;;;;;;7.40;99.90;;;;;;4879224;29;19928;-65
2023/03/14 06:46:37;;;;;;;;;;;7.20;99.90;;;;;;4879581;29;20487;-66
2023/03/14 06:49:03;;;;;;;;;;;7.00;99.90;;;;;;4862914;29;19934;-63
2023/03/14 06:51:29;;;;;;;;;;;6.80;99.90;;;;;;4878958;29;19974;-63
2023/03/14 06:53:54;;;;;;;;;;;6.60;99.90;;;;;;4861906;29;19927;-64
2023/03/14 06:56:20;;;;;;;;;;;6.40;99.90;;;;;;4878161;29;20340;-63
2023/03/14 06:58:45;;;;;;;;;;;6.10;99.90;;;;;;4879361;29;20022;-62
2023/03/14 07:01:17;;;;;;;;;;;5.90;99.90;;;;;;4879039;29;19928;-64
2023/03/14 07:03:43;;;;;;;;;;;5.80;99.90;;;;;;4879161;29;19927;-63
2023/03/14 07:06:08;;;;;;;;;;;5.60;99.90;;;;;;4862249;29;20014;-63
2023/03/14 07:08:34;;;;;;;;;;;5.40;99.90;;;;;;4862179;29;19924;-63
2023/03/14 07:11:00;;;;;;;;;;;5.30;99.90;;;;;;4879127;29;19928;-63
2023/03/14 07:13:25;;;;;;;;;;;5.20;99.90;;;;;;4862113;29;20384;-62
2023/03/14 07:15:51;;;;;;;;;;;5.20;99.90;;;;;;4862439;29;19928;-62
2023/03/14 07:18:16;;;;;;;;;;;5.10;99.90;;;;;;4878476;29;19935;-65
2023/03/14 07:20:44;;;;;;;;;;;5.10;99.90;;;;;;4877939;29;19978;-63
2023/03/14 07:23:10;;;;;;;;;;;4.90;99.90;;;;;;4878849;29;19935;-62
2023/03/14 07:25:35;;;;;;;;;;;4.90;99.90;;;;;;4878542;29;19984;-62
2023/03/14 07:28:01;;;;;;;;;;;4.70;99.90;;;;;;4862448;29;19944;-62
2023/03/14 07:30:26;;;;;;;;;;;4.70;99.90;;;;;;4861613;29;19928;-62
2023/03/14 07:32:52;;;;;;;;;;;4.60;99.90;;;;;;4878829;29;19935;-63
2023/03/14 07:35:18;;;;;;;;;;;4.50;99.90;;;;;;4878235;29;20030;-64
2023/03/14 07:37:43;;;;;;;;;;;4.50;99.90;;;;;;4878365;29;19927;-62
2023/03/14 07:40:10;;;;;;;;;;;4.60;99.90;;;;;;4879001;29;19932;-62
2023/03/14 07:42:36;;;;;;;;;;;4.50;99.90;;;;;;4877891;29;20406;-63
2023/03/14 07:45:02;;;;;;;;;;;4.50;99.90;;;;;;4878627;29;19927;-63
2023/03/14 07:47:28;;;;;;;;;;;4.60;99.90;;;;;;4878080;29;19986;-62
2023/03/14 07:49:53;;;;;;;;;;;4.60;99.90;;;;;;4878520;29;20050;-62
2023/03/14 07:52:19;;;;;;;;;;;4.60;99.90;;;;;;4846635;29;19932;-63
2023/03/14 07:54:45;;;;;;;;;;;4.60;99.90;;;;;;4861437;29;19935;-62
2023/03/14 07:57:10;;;;;;;;;;;4.60;99.90;;;;;;4878153;29;20023;-62
2023/03/14 07:59:36;;;;;;;;;;;4.60;99.90;;;;;;4877886;29;19928;-62
2023/03/14 08:02:01;;;;;;;;;;;4.60;99.90;;;;;;4861848;29;20027;-62
2023/03/14 08:04:27;;;;;;;;;;;4.60;99.90;;;;;;4861257;29;19935;-62
2023/03/14 08:06:54;;;;;;;;;;;4.70;99.90;;;;;;4878114;29;19984;-62
2023/03/14 08:09:19;;;;;;;;;;;4.70;99.90;;;;;;4878281;29;19931;-63
2023/03/14 08:11:45;;;;;;;;;;;4.80;99.90;;;;;;4877657;29;20367;-62
2023/03/14 08:14:11;;;;;;;;;;;4.80;99.90;;;;;;4878279;29;19932;-62
2023/03/14 08:16:36;;;;;;;;;;;4.90;99.90;;;;;;4861449;29;19964;-63
2023/03/14 08:19:02;;;;;;;;;;;5.00;99.90;;;;;;4878068;29;19932;-63
2023/03/14 08:21:27;;;;;;;;;;;5.10;99.90;;;;;;4861220;29;19928;-63
2023/03/14 08:23:53;;;;;;;;;;;5.30;99.90;;;;;;4877979;29;19928;-63
2023/03/14 08:26:18;;;;;;;;;;;5.30;99.90;;;;;;4861802;29;19978;-64
2023/03/14 08:28:44;;;;;;;;;;;5.40;99.90;;;;;;4861217;29;19931;-63
2023/03/14 08:31:10;;;;;;;;;;;5.40;99.90;;;;;;4877612;29;19976;-65
2023/03/14 08:33:35;;;;;;;;;;;5.50;99.90;;;;;;4877739;29;20010;-63
2023/03/14 08:36:01;;;;;;;;;;;5.50;99.90;;;;;;4877738;29;20000;-62
2023/03/14 08:38:27;;;;;;;;;;;5.60;99.90;;;;;;4861296;29;19928;-64
2023/03/14 08:40:59;;;;;;;;;;;5.60;99.90;;;;;;4877798;29;19927;-63
2023/03/14 08:43:25;;;;;;;;;;;5.70;99.90;;;;;;4861474;29;19928;-63
2023/03/14 08:45:50;;;;;;;;;;;5.70;99.90;;;;;;4877509;29;20332;-63
2023/03/14 08:48:16;;;;;;;;;;;5.80;99.90;;;;;;4879598;29;19928;-63
2023/03/14 08:50:42;;;;;;;;;;;5.80;99.90;;;;;;4880806;29;19951;-64
2023/03/14 08:53:07;;;;;;;;;;;5.80;99.90;;;;;;4881750;29;19935;-64
2023/03/14 08:55:34;;;;;;;;;;;5.90;99.90;;;;;;4864604;29;20083;-63
2023/03/14 08:57:59;;;;;;;;;;;6.00;99.90;;;;;;4881488;29;19994;-63
2023/03/14 09:00:25;;;;;;;;;;;6.00;99.90;;;;;;4881424;29;20018;-65
2023/03/14 09:02:50;;;;;;;;;;;6.20;99.90;;;;;;4881034;29;19928;-64
2023/03/14 09:05:16;;;;;;;;;;;6.40;99.90;;;;;;4864851;29;20011;-63
2023/03/14 09:07:42;;;;;;;;;;;6.80;99.90;;;;;;4880580;29;19932;-63
2023/03/14 09:10:08;;;;;;;;;;;7.30;99.90;;;;;;4880990;29;19979;-63
2023/03/14 09:12:34;;;;;;;;;;;7.80;99.90;;;;;;4880901;29;19931;-64
2023/03/14 09:14:59;;;;;;;;;;;8.00;99.90;;;;;;4881122;29;19987;-64
2023/03/14 09:17:25;;;;;;;;;;;8.30;99.90;;;;;;4864313;29;20352;-64
2023/03/14 09:19:50;;;;;;;;;;;8.60;99.90;;;;;;4864377;29;20117;-63
2023/03/14 09:22:16;;;;;;;;;;;8.60;99.90;;;;;;4880902;29;20456;-63
2023/03/14 09:24:41;;;;;;;;;;;8.30;99.90;;;;;;4880629;29;19935;-63
2023/03/14 09:27:08;;;;;;;;;;;7.90;99.90;;;;;;4880774;29;19931;-63
2023/03/14 09:29:33;;;;;;;;;;;7.70;99.90;;;;;;4880579;29;20287;-64
2023/03/14 09:31:59;;;;;;;;;;;7.50;99.90;;;;;;4880539;29;19932;-63
2023/03/14 09:34:25;;;;;;;;;;;7.30;99.90;;;;;;4864202;29;19927;-64
2023/03/14 09:36:50;;;;;;;;;;;7.20;99.90;;;;;;4864022;29;20288;-63
2023/03/14 09:39:16;;;;;;;;;;;7.00;99.90;;;;;;4864181;29;20284;-64
2023/03/14 09:41:54;;;;;;;;;;;7.00;99.90;;;;;;4848543;29;19927;-64
2023/03/14 09:44:22;;;;;;;;;;;6.90;99.90;;;;;;4848773;29;19932;-63
2023/03/14 09:46:51;;;;;;;;;;;6.90;99.90;;;;;;4880152;29;19932;-64
2023/03/14 09:49:37;;;;;;;;;;;6.80;99.90;;;;;;4880284;29;19928;-65
2023/03/14 09:52:11;;;;;;;;;;;7.30;99.90;;;;;;4879666;29;19928;-65
2023/03/14 09:54:45;;;;;;;;;;;7.00;99.90;;;;;;4880008;29;20295;-65
2023/03/14 09:57:15;;;;;;;;;;;7.00;99.90;;;;;;4880310;29;19935;-64
2023/03/14 09:59:43;;;;;;;;;;;7.00;99.90;;;;;;4879562;29;19928;-64
2023/03/14 10:02:31;;;;;;;;;;;7.00;99.90;;;;;;4880302;29;20311;-64
2023/03/14 10:04:57;;;;;;;;;;;7.00;99.90;;;;;;4858116;29;19928;-65
2023/03/14 10:07:31;;;;;;;;;;;6.90;99.90;;;;;;4878674;29;19927;-64
2023/03/14 10:09:57;;;;;;;;;;;6.80;99.90;;;;;;4862744;29;20372;-65
2023/03/14 10:12:33;;;;;;;;;;;6.90;99.90;;;;;;4880228;29;19935;-64
2023/03/14 10:15:01;;;;;;;;;;;6.90;99.90;;;;;;4863288;29;19997;-64
2023/03/14 10:17:28;;;;;;;;;;;6.90;99.90;;;;;;4863501;29;19971;-64
2023/03/14 10:19:59;;;;;;;;;;;6.90;99.90;;;;;;4879344;29;19935;-64
2023/03/14 10:22:26;;;;;;;;;;;6.90;99.90;;;;;;4879723;29;20388;-64
2023/03/14 10:24:56;;;;;;;;;;;7.00;99.90;;;;;;4879569;29;19934;-65
2023/03/14 10:27:27;;;;;;;;;;;7.20;99.90;;;;;;4879915;29;20356;-64
2023/03/14 10:29:55;;;;;;;;;;;7.20;99.90;;;;;;4879565;29;20018;-65
2023/03/14 10:32:21;;;;;;;;;;;7.20;99.90;;;;;;4879792;29;20332;-65
2023/03/14 10:35:04;;;;;;;;;;;7.20;99.90;;;;;;4879426;29;19928;-65
2023/03/14 10:37:29;;;;;;;;;;;7.20;99.90;;;;;;4879759;29;20023;-64
2023/03/14 10:39:58;;;;;;;;;;;7.30;99.90;;;;;;4879365;29;20022;-64
2023/03/14 10:42:25;;;;;;;;;;;7.30;99.90;;;;;;4879757;29;19936;-64
2023/03/14 10:44:55;;;;;;;;;;;7.30;99.90;;;;;;4879233;29;20015;-64
2023/03/14 10:47:23;;;;;;;;;;;7.30;99.90;;;;;;4879295;29;20303;-64
2023/03/14 10:49:48;;;;;;;;;;;7.40;99.90;;;;;;4878660;29;20458;-64
2023/03/14 10:52:18;;;;;;;;;;;7.60;99.90;;;;;;4862559;29;19928;-64
2023/03/14 10:54:46;;;;;;;;;;;7.50;99.90;;;;;;4862833;29;19951;-65
2023/03/14 10:57:12;;;;;;;;;;;7.40;99.90;;;;;;4861921;29;20448;-64
2023/03/14 10:59:39;;;;;;;;;;;7.40;99.90;;;;;;4879407;29;19928;-64
2023/03/14 11:02:17;;;;;;;;;;;7.50;99.90;;;;;;4862413;29;19928;-64
2023/03/14 11:05:04;;;;;;;;;;;7.50;99.90;;;;;;4879313;29;19927;-64
2023/03/14 11:07:56;;;;;;;;;;;7.40;99.90;;;;;;4862753;29;20451;-65
2023/03/14 11:10:37;;;;;;;;;;;7.30;99.90;;;;;;4859896;29;19932;-64
2023/03/14 11:13:15;;;;;;;;;;;7.30;99.90;;;;;;4878719;29;19928;-64
2023/03/14 11:16:01;;;;;;;;;;;7.20;99.90;;;;;;4879092;29;19928;-65
2023/03/14 11:18:45;;;;;;;;;;;7.30;99.90;;;;;;4858799;29;20030;-65
2023/03/14 11:21:13;;;;;;;;;;;7.30;99.90;;;;;;4878726;29;19934;-65
2023/03/14 11:23:45;;;;;;;;;;;7.30;99.90;;;;;;4862503;29;19932;-65
2023/03/14 11:26:16;;;;;;;;;;;7.30;99.90;;;;;;4878617;29;19942;-66
2023/03/14 11:28:47;;;;;;;;;;;7.20;99.90;;;;;;4878758;29;20293;-64
2023/03/14 11:31:18;;;;;;;;;;;7.30;99.90;;;;;;4878448;29;19928;-64
2023/03/14 11:33:55;;;;;;;;;;;7.30;99.90;;;;;;4862462;29;19979;-65
2023/03/14 11:36:25;;;;;;;;;;;7.40;99.90;;;;;;4862005;29;19928;-65
2023/03/14 11:38:54;;;;;;;;;;;7.40;99.90;;;;;;4861937;29;19927;-66
2023/03/14 11:41:25;;;;;;;;;;;7.40;99.90;;;;;;4878525;29;19928;-65
2023/03/14 11:43:55;;;;;;;;;;;7.40;99.90;;;;;;4878813;29;19928;-66
2023/03/14 11:46:29;;;;;;;;;;;7.50;99.90;;;;;;4878768;29;20296;-65
2023/03/14 11:49:04;;;;;;;;;;;7.50;99.90;;;;;;4846471;29;19931;-65
2023/03/14 11:51:38;;;;;;;;;;;7.40;99.90;;;;;;4846612;29;19954;-65
2023/03/14 11:54:11;;;;;;;;;;;7.30;99.90;;;;;;4877965;29;19938;-65
2023/03/14 11:56:39;;;;;;;;;;;7.40;99.90;;;;;;4846304;29;19935;-65
2023/03/14 11:59:09;;;;;;;;;;;7.60;99.90;;;;;;4878073;29;19927;-65
2023/03/14 12:01:53;;;;;;;;;;;7.70;99.90;;;;;;4878445;29;19935;-65
2023/03/14 12:04:19;;;;;;;;;;;7.90;99.90;;;;;;4878481;29;19931;-65
2023/03/14 12:06:48;;;;;;;;;;;7.80;99.90;;;;;;4878567;29;20303;-65
2023/03/14 12:09:15;;;;;;;;;;;7.80;99.90;;;;;;4877926;29;19927;-65
2023/03/14 12:11:47;;;;;;;;;;;7.70;99.90;;;;;;4846041;29;19928;-65
2023/03/14 12:14:36;;;;;;;;;;;7.80;99.90;;;;;;4861217;29;19935;-65
2023/03/14 12:17:06;;;;;;;;;;;7.70;99.90;;;;;;4856396;29;19978;-65
2023/03/14 12:19:33;;;;;;;;;;;7.60;99.90;;;;;;4878073;29;20498;-64
2023/03/14 12:22:07;;;;;;;;;;;7.60;99.90;;;;;;4862741;29;20595;-65
2023/03/14 12:24:34;;;;;;;;;;;7.50;99.90;;;;;;4882162;29;19932;-65
2023/03/14 12:27:01;;;;;;;;;;;7.50;99.90;;;;;;4881565;29;19927;-65
2023/03/14 12:29:27;;;;;;;;;;;7.40;99.90;;;;;;4865554;29;20026;-65
2023/03/14 12:32:11;;;;;;;;;;;7.40;99.90;;;;;;4865149;29;20001;-65
2023/03/14 12:34:41;;;;;;;;;;;7.30;99.90;;;;;;4882019;29;20043;-64
2023/03/14 12:37:17;;;;;;;;;;;7.30;99.90;;;;;;4881605;29;19932;-64
2023/03/14 12:40:00;;;;;;;;;;;7.10;99.90;;;;;;4880762;29;19928;-66
2023/03/14 12:42:29;;;;;;;;;;;7.10;99.90;;;;;;4881876;29;19935;-65
2023/03/14 12:45:09;;;;;;;;;;;7.10;99.90;;;;;;4881848;29;19927;-64
2023/03/14 12:47:38;;;;;;;;;;;7.10;99.90;;;;;;4881736;29;19944;-65
2023/03/14 12:50:08;;;;;;;;;;;7.10;99.90;;;;;;4864639;29;20014;-65
2023/03/14 12:52:33;;;;;;;;;;;7.10;99.90;;;;;;4864733;29;19932;-64
2023/03/14 12:55:23;;;;;;;;;;;7.00;99.90;;;;;;4865036;29;19939;-65
2023/03/14 12:57:53;;;;;;;;;;;6.90;99.90;;;;;;4876123;29;20031;-65
2023/03/14 13:00:24;;;;;;;;;;;6.80;99.90;;;;;;4864639;29;19928;-64
2023/03/14 13:02:49;;;;;;;;;;;6.60;99.90;;;;;;4864628;29;20026;-65
2023/03/14 13:05:19;;;;;;;;;;;6.60;99.90;;;;;;4881107;29;19974;-64
2023/03/14 13:07:48;;;;;;;;;;;6.60;99.90;;;;;;4881237;29;19932;-64
2023/03/14 13:10:20;;;;;;;;;;;6.70;99.90;;;;;;4880854;29;19928;-64
2023/03/14 13:12:45;;;;;;;;;;;6.70;99.90;;;;;;4864715;29;20277;-64
2023/03/14 13:15:14;;;;;;;;;;;6.70;99.90;;;;;;4880325;29;19939;-64
2023/03/14 13:17:39;;;;;;;;;;;6.80;99.90;;;;;;4864568;29;20018;-64
2023/03/14 13:20:12;;;;;;;;;;;6.70;99.90;;;;;;4864003;29;20022;-65
2023/03/14 13:22:38;;;;;;;;;;;6.70;99.90;;;;;;4864571;29;19928;-64
2023/03/14 13:25:09;;;;;;;;;;;6.70;99.90;;;;;;4864025;29;19937;-65
2023/03/14 13:27:35;;;;;;;;;;;6.60;99.90;;;;;;4881131;29;19928;-64
2023/03/14 13:30:19;;;;;;;;;;;6.60;99.90;;;;;;4880850;29;19928;-64
2023/03/14 13:32:47;;;;;;;;;;;6.70;99.90;;;;;;4880643;29;19927;-64
2023/03/14 13:35:23;;;;;;;;;;;6.70;99.90;;;;;;4880091;29;20292;-64
2023/03/14 13:37:54;;;;;;;;;;;6.90;99.90;;;;;;4864253;29;20427;-64
2023/03/14 13:40:30;;;;;;;;;;;7.00;99.90;;;;;;4880428;29;19928;-64
2023/03/14 13:43:01;;;;;;;;;;;7.10;99.90;;;;;;4864286;29;19955;-64
2023/03/14 13:45:27;;;;;;;;;;;7.10;99.90;;;;;;4880214;29;20022;-65
2023/03/14 13:47:53;;;;;;;;;;;7.20;99.90;;;;;;4880622;29;20004;-64
2023/03/14 13:50:18;;;;;;;;;;;7.30;99.90;;;;;;4863696;29;19939;-64
2023/03/14 13:52:46;;;;;;;;;;;7.40;99.90;;;;;;4880517;29;19975;-65
2023/03/14 13:55:15;;;;;;;;;;;7.50;99.90;;;;;;4880028;29;19934;-64
2023/03/14 13:57:44;;;;;;;;;;;7.50;99.90;;;;;;4880391;29;19935;-64
2023/03/14 14:00:18;;;;;;;;;;;7.50;99.90;;;;;;4879600;29;19999;-66
2023/03/14 14:02:43;;;;;;;;;;;7.40;99.90;;;;;;4880402;29;19928;-64
2023/03/14 14:05:11;;;;;;;;;;;7.30;99.90;;;;;;4863789;29;20424;-68
2023/03/14 14:07:37;;;;;;;;;;;7.30;99.90;;;;;;4880156;29;19928;-65
2023/03/14 14:10:04;;;;;;;;;;;7.30;99.90;;;;;;4863789;29;19975;-65
2023/03/14 14:12:29;;;;;;;;;;;7.30;99.90;;;;;;4879398;29;19939;-64
2023/03/14 14:15:00;;;;;;;;;;;7.40;99.90;;;;;;4879934;29;19934;-64
2023/03/14 14:17:36;;;;;;;;;;;7.40;99.90;;;;;;4847608;29;20265;-64
2023/03/14 14:20:04;;;;;;;;;;;7.60;99.90;;;;;;4847860;29;20325;-64
2023/03/14 14:22:29;;;;;;;;;;;7.50;99.90;;;;;;4878795;29;20395;-64
2023/03/14 14:24:55;;;;;;;;;;;7.40;99.90;;;;;;4879617;29;19947;-64
2023/03/14 14:27:35;;;;;;;;;;;7.40;99.90;;;;;;4879472;29;20390;-64
2023/03/14 14:30:05;;;;;;;;;;;7.40;99.90;;;;;;4879772;29;19928;-64
2023/03/14 14:32:37;;;;;;;;;;;7.30;99.90;;;;;;4879116;29;19950;-64